createdAt,value
2022-10-30T00:01:43.937Z,12.03
2022-10-30T00:06:45.709Z,12.06
2022-10-30T00:11:47.359Z,11.90
2022-10-30T00:16:49.030Z,11.61
2022-10-30T00:21:50.687Z,11.51
2022-10-30T00:26:52.382Z,11.38
2022-10-30T00:31:54.052Z,11.30
2022-10-30T00:36:55.705Z,11.34
2022-10-30T00:41:57.441Z,11.41
2022-10-30T00:47:04.441Z,11.18
2022-10-30T00:52:09.645Z,11.26
2022-10-30T00:57:11.439Z,11.15
2022-10-30T01:02:13.369Z,11.21
2022-10-30T01:07:16.720Z,11.23
2022-10-30T01:12:18.384Z,11.24
2022-10-30T01:18:03.715Z,11.17
2022-10-30T01:23:27.124Z,11.15
2022-10-30T01:29:07.296Z,11.02
2022-10-30T01:34:21.272Z,10.98
2022-10-30T01:39:27.027Z,10.90
2022-10-30T01:44:32.283Z,10.91
2022-10-30T01:49:50.030Z,10.56
2022-10-30T01:55:18.232Z,10.50
2022-10-30T02:00:21.426Z,10.55
2022-10-30T02:05:43.273Z,10.42
2022-10-30T02:10:47.881Z,10.49
2022-10-30T02:15:50.419Z,10.54
2022-10-30T02:20:54.080Z,10.44
2022-10-30T02:25:55.768Z,10.36
2022-10-30T02:30:57.780Z,10.42
2022-10-30T02:35:59.562Z,10.41
2022-10-30T02:41:01.317Z,10.53
2022-10-30T02:46:04.147Z,10.39
2022-10-30T02:51:06.139Z,10.27
2022-10-30T02:56:10.319Z,10.40
2022-10-30T03:01:16.379Z,10.49
2022-10-30T03:06:18.821Z,10.55
2022-10-30T03:11:21.058Z,10.53
2022-10-30T03:16:25.597Z,10.60
2022-10-30T03:21:28.324Z,10.67
2022-10-30T03:26:29.997Z,10.72
2022-10-30T03:31:38.739Z,10.79
2022-10-30T03:36:53.830Z,10.51
2022-10-30T03:41:56.135Z,10.32
2022-10-30T03:46:58.588Z,10.76
2022-10-30T03:52:14.557Z,10.84
2022-10-30T03:57:16.288Z,10.69
2022-10-30T04:02:33.040Z,10.74
2022-10-30T04:07:34.757Z,10.74
2022-10-30T04:12:38.128Z,10.62
2022-10-30T04:17:39.892Z,10.78
2022-10-30T04:22:41.806Z,10.64
2022-10-30T04:27:44.791Z,10.74
2022-10-30T04:32:53.530Z,10.81
2022-10-30T04:37:56.686Z,10.85
2022-10-30T04:42:59.138Z,10.59
2022-10-30T04:48:06.642Z,10.30
2022-10-30T04:53:13.867Z,10.48
2022-10-30T04:58:16.281Z,10.38
2022-10-30T05:03:23.631Z,10.27
2022-10-30T05:08:25.459Z,10.24
2022-10-30T05:13:27.574Z,9.87
2022-10-30T05:18:29.317Z,10.08
2022-10-30T05:23:31.067Z,10.21
2022-10-30T05:28:32.946Z,10.20
2022-10-30T05:33:35.051Z,10.36
2022-10-30T05:38:36.995Z,10.37
2022-10-30T05:43:41.781Z,10.37
2022-10-30T05:48:43.558Z,10.30
2022-10-30T05:53:48.193Z,10.32
2022-10-30T05:58:50.404Z,10.34
2022-10-30T06:03:52.256Z,10.55
2022-10-30T06:08:54.038Z,10.47
2022-10-30T06:14:12.216Z,10.67
2022-10-30T06:19:25.523Z,10.61
2022-10-30T06:24:31.828Z,10.70
2022-10-30T06:29:54.868Z,10.68
2022-10-30T06:34:56.658Z,10.60
2022-10-30T06:39:59.291Z,11.09
2022-10-30T06:45:21.374Z,11.34
2022-10-30T06:50:24.273Z,11.49
2022-10-30T06:55:26.280Z,11.64
2022-10-30T07:00:41.142Z,11.88
2022-10-30T07:05:56.008Z,11.88
2022-10-30T07:10:58.712Z,12.08
2022-10-30T07:16:11.957Z,12.50
2022-10-30T07:21:17.093Z,12.33
2022-10-30T07:26:18.883Z,12.52
2022-10-30T07:31:34.855Z,12.25
2022-10-30T07:37:04.089Z,12.60
2022-10-30T07:42:18.104Z,12.58
2022-10-30T07:47:45.333Z,12.95
2022-10-30T07:53:07.317Z,14.29
2022-10-30T07:58:09.041Z,14.51
2022-10-30T08:03:24.574Z,14.38
2022-10-30T08:08:46.529Z,14.38
2022-10-30T08:13:56.166Z,15.03
2022-10-30T08:18:58.366Z,13.86
2022-10-30T08:24:00.563Z,14.37
2022-10-30T08:29:05.222Z,13.97
2022-10-30T08:34:07.223Z,14.90
2022-10-30T08:39:16.832Z,15.07
2022-10-30T08:44:32.155Z,14.33
2022-10-30T08:50:08.381Z,16.36
2022-10-30T08:55:12.242Z,18.62
2022-10-30T09:00:14.300Z,19.41
2022-10-30T09:05:34.358Z,19.91
2022-10-30T09:10:58.664Z,17.42
2022-10-30T09:16:02.711Z,17.16
2022-10-30T09:21:07.320Z,18.16
2022-10-30T09:26:20.770Z,19.15
2022-10-30T09:31:38.999Z,18.32
2022-10-30T09:36:44.083Z,19.24
2022-10-30T09:42:06.992Z,19.51
2022-10-30T09:47:42.582Z,19.66
2022-10-30T09:53:28.962Z,19.12
2022-10-30T09:58:52.742Z,18.07
2022-10-30T10:04:25.639Z,21.52
2022-10-30T10:09:49.015Z,25.80
2022-10-30T10:15:31.138Z,27.94
2022-10-30T10:20:41.488Z,25.78
2022-10-30T10:25:52.091Z,27.00
2022-10-30T10:31:06.331Z,26.88
2022-10-30T10:36:30.947Z,28.11
2022-10-30T10:41:35.279Z,27.64
2022-10-30T10:46:57.584Z,28.84
2022-10-30T10:52:09.059Z,31.49
2022-10-30T10:57:24.467Z,32.50
2022-10-30T11:03:00.950Z,29.59
2022-10-30T11:08:21.726Z,30.09
2022-10-30T11:13:28.318Z,29.81
2022-10-30T11:18:29.977Z,31.30
2022-10-30T11:23:42.131Z,31.22
2022-10-30T11:29:04.985Z,31.98
2022-10-30T11:34:37.010Z,32.42
2022-10-30T11:39:38.664Z,32.11
2022-10-30T11:44:45.003Z,32.65
2022-10-30T11:49:53.848Z,32.03
2022-10-30T11:55:10.444Z,32.81
2022-10-30T12:00:24.014Z,34.15
2022-10-30T12:05:25.634Z,33.22
2022-10-30T12:10:30.357Z,33.58
2022-10-30T12:15:37.429Z,29.06
2022-10-30T12:20:39.284Z,32.23
2022-10-30T12:25:47.519Z,32.85
2022-10-30T12:31:03.749Z,33.19
2022-10-30T12:36:19.088Z,32.44
2022-10-30T12:41:32.932Z,30.51
2022-10-30T12:46:53.361Z,31.03
2022-10-30T12:52:07.641Z,30.27
2022-10-30T12:57:15.052Z,32.55
2022-10-30T13:02:23.934Z,31.70
2022-10-30T13:07:38.760Z,30.80
2022-10-30T13:12:43.096Z,30.99
2022-10-30T13:17:44.756Z,28.73
2022-10-30T13:22:49.194Z,30.26
2022-10-30T13:28:17.692Z,30.05
2022-10-30T13:33:45.036Z,29.18
2022-10-30T13:38:46.659Z,28.86
2022-10-30T13:44:27.279Z,28.38
2022-10-30T13:49:40.798Z,26.68
2022-10-30T13:54:48.281Z,25.89
2022-10-30T14:00:16.158Z,26.05
2022-10-30T14:05:36.722Z,25.42
2022-10-30T14:10:45.717Z,24.91
2022-10-30T14:15:47.581Z,25.29
2022-10-30T14:20:54.575Z,24.67
2022-10-30T14:26:02.217Z,24.10
2022-10-30T14:31:10.294Z,24.41
2022-10-30T14:36:18.240Z,23.29
2022-10-30T14:41:26.935Z,23.44
2022-10-30T14:46:41.635Z,22.52
2022-10-30T14:52:04.587Z,21.51
2022-10-30T14:57:21.054Z,21.04
2022-10-30T15:02:37.739Z,20.67
2022-10-30T15:07:57.649Z,20.14
2022-10-30T15:13:22.660Z,19.82
2022-10-30T15:18:26.852Z,19.42
2022-10-30T15:23:35.827Z,19.08
2022-10-30T15:28:40.351Z,18.49
2022-10-30T15:33:41.996Z,17.89
2022-10-30T15:38:43.646Z,17.72
2022-10-30T15:43:45.477Z,17.52
2022-10-30T15:48:48.036Z,17.15
2022-10-30T15:53:53.046Z,17.10
2022-10-30T15:59:00.244Z,16.56
2022-10-30T16:04:01.890Z,16.50
2022-10-30T16:09:04.625Z,16.42
2022-10-30T16:14:15.268Z,16.25
2022-10-30T16:19:19.545Z,16.04
2022-10-30T16:24:29.630Z,15.69
2022-10-30T16:29:32.407Z,15.76
2022-10-30T16:34:35.788Z,15.52
2022-10-30T16:39:38.349Z,15.37
2022-10-30T16:44:40.083Z,15.27
2022-10-30T16:49:48.636Z,15.20
2022-10-30T16:55:18.859Z,15.12
2022-10-30T17:00:26.045Z,14.77
2022-10-30T17:05:34.272Z,14.64
2022-10-30T17:10:55.733Z,14.44
2022-10-30T17:15:57.888Z,14.31
2022-10-30T17:21:08.424Z,14.26
2022-10-30T17:26:11.473Z,14.19
2022-10-30T17:31:20.417Z,14.11
2022-10-30T17:36:22.094Z,13.94
2022-10-30T17:41:23.815Z,13.78
2022-10-30T17:46:25.557Z,13.85
2022-10-30T17:51:29.214Z,13.92
2022-10-30T17:56:33.676Z,13.67
2022-10-30T18:01:35.513Z,13.62
2022-10-30T18:06:37.256Z,13.53
2022-10-30T18:11:39.047Z,13.20
2022-10-30T18:16:40.741Z,13.02
2022-10-30T18:21:42.380Z,13.27
2022-10-30T18:26:44.593Z,13.27
2022-10-30T18:31:46.303Z,13.18
2022-10-30T18:36:48.574Z,12.92
2022-10-30T18:41:50.314Z,12.75
2022-10-30T18:46:52.188Z,12.75
2022-10-30T18:51:53.844Z,12.60
2022-10-30T18:56:55.476Z,12.72
2022-10-30T19:01:57.300Z,12.61
2022-10-30T19:06:59.022Z,12.55
2022-10-30T19:12:00.752Z,12.45
2022-10-30T19:17:02.457Z,12.20
2022-10-30T19:22:04.128Z,12.26
2022-10-30T19:27:05.775Z,12.25
2022-10-30T19:32:07.418Z,12.19
2022-10-30T19:37:09.558Z,12.04
2022-10-30T19:42:11.210Z,11.96
2022-10-30T19:47:12.866Z,11.92
2022-10-30T19:52:15.972Z,11.99
2022-10-30T20:02:20.784Z,11.78
2022-10-30T20:07:22.480Z,11.87
2022-10-30T20:12:24.285Z,11.64
2022-10-30T20:17:25.953Z,11.64
2022-10-30T20:22:28.512Z,11.61
2022-10-30T20:27:30.245Z,11.48
2022-10-30T20:32:31.925Z,11.43
2022-10-30T20:37:33.613Z,11.01
2022-10-30T20:42:37.370Z,11.22
2022-10-30T20:47:39.628Z,11.21
2022-10-30T20:52:41.905Z,11.21
2022-10-30T20:57:43.737Z,11.18
2022-10-30T21:02:45.490Z,10.96
2022-10-30T21:07:47.186Z,10.87
2022-10-30T21:12:48.935Z,10.80
2022-10-30T21:17:51.294Z,10.81
2022-10-30T21:22:52.940Z,10.80
2022-10-30T21:27:57.019Z,10.87
2022-10-30T21:32:59.586Z,10.81
2022-10-30T21:38:01.789Z,10.54
2022-10-30T21:43:04.597Z,10.61
2022-10-30T21:48:06.763Z,10.66
2022-10-30T21:53:08.606Z,10.60
2022-10-30T21:58:10.255Z,10.47
2022-10-30T22:03:11.941Z,10.32
2022-10-30T22:08:13.624Z,10.41
2022-10-30T22:13:15.373Z,10.34
2022-10-30T22:18:17.028Z,10.29
2022-10-30T22:23:18.721Z,10.35
2022-10-30T22:28:20.374Z,10.25
2022-10-30T22:33:22.082Z,10.22
2022-10-30T22:38:23.742Z,10.29
2022-10-30T22:43:25.418Z,10.31
2022-10-30T22:48:27.083Z,10.33
2022-10-30T22:53:30.426Z,10.30
2022-10-30T22:58:32.084Z,10.37
2022-10-30T23:03:33.793Z,10.38
2022-10-30T23:08:36.457Z,10.47
2022-10-30T23:13:38.450Z,10.49
2022-10-30T23:18:40.501Z,10.58
2022-10-30T23:23:43.490Z,10.51
2022-10-30T23:28:46.372Z,10.50
2022-10-30T23:33:49.135Z,10.48
2022-10-30T23:38:55.313Z,10.39
2022-10-30T23:43:59.109Z,10.36
2022-10-30T23:49:00.874Z,10.19
2022-10-30T23:54:02.777Z,10.14
2022-10-30T23:59:04.443Z,10.23
